sensor_id;sensor_type;location;lat;lon;timestamp;P1;durP1;ratioP1;P2;durP2;ratioP2
47309;SDS011;33046;52.270;6.832;2023-07-13T00:00:11;6.10;;;1.70;;
47309;SDS011;33046;52.270;6.832;2023-07-13T00:02:20;6.65;;;0.82;;
47309;SDS011;33046;52.270;6.832;2023-07-13T00:04:27;4.32;;;1.48;;
47309;SDS011;33046;52.270;6.832;2023-07-13T00:06:34;9.50;;;1.65;;
47309;SDS011;33046;52.270;6.832;2023-07-13T00:08:41;3.67;;;0.90;;
47309;SDS011;33046;52.270;6.832;2023-07-13T00:10:48;5.63;;;0.80;;
47309;SDS011;33046;52.270;6.832;2023-07-13T00:12:58;6.07;;;0.95;;
47309;SDS011;33046;52.270;6.832;2023-07-13T00:15:06;6.75;;;1.60;;
47309;SDS011;33046;52.270;6.832;2023-07-13T00:17:19;6.38;;;1.60;;
47309;SDS011;33046;52.270;6.832;2023-07-13T00:19:26;6.45;;;1.17;;
47309;SDS011;33046;52.270;6.832;2023-07-13T00:21:33;4.35;;;0.80;;
47309;SDS011;33046;52.270;6.832;2023-07-13T00:23:40;4.85;;;0.80;;
47309;SDS011;33046;52.270;6.832;2023-07-13T00:25:48;4.75;;;0.93;;
47309;SDS011;33046;52.270;6.832;2023-07-13T00:27:55;5.72;;;0.75;;
47309;SDS011;33046;52.270;6.832;2023-07-13T00:30:02;4.93;;;0.77;;
47309;SDS011;33046;52.270;6.832;2023-07-13T00:32:10;6.25;;;1.20;;
47309;SDS011;33046;52.270;6.832;2023-07-13T00:34:19;7.07;;;0.90;;
47309;SDS011;33046;52.270;6.832;2023-07-13T00:36:26;7.03;;;0.98;;
47309;SDS011;33046;52.270;6.832;2023-07-13T00:38:33;6.32;;;1.17;;
47309;SDS011;33046;52.270;6.832;2023-07-13T00:40:40;6.47;;;1.45;;
47309;SDS011;33046;52.270;6.832;2023-07-13T00:42:47;8.80;;;1.30;;
47309;SDS011;33046;52.270;6.832;2023-07-13T00:45:01;6.75;;;0.90;;
47309;SDS011;33046;52.270;6.832;2023-07-13T00:47:13;3.90;;;1.20;;
47309;SDS011;33046;52.270;6.832;2023-07-13T00:49:22;8.18;;;1.02;;
47309;SDS011;33046;52.270;6.832;2023-07-13T00:51:33;7.18;;;1.25;;
47309;SDS011;33046;52.270;6.832;2023-07-13T00:53:43;5.35;;;0.90;;
47309;SDS011;33046;52.270;6.832;2023-07-13T00:55:50;3.28;;;1.20;;
47309;SDS011;33046;52.270;6.832;2023-07-13T00:58:00;5.40;;;1.55;;
47309;SDS011;33046;52.270;6.832;2023-07-13T01:00:08;5.75;;;1.25;;
47309;SDS011;33046;52.270;6.832;2023-07-13T01:02:16;6.35;;;1.48;;
47309;SDS011;33046;52.270;6.832;2023-07-13T01:04:25;6.18;;;1.63;;
47309;SDS011;33046;52.270;6.832;2023-07-13T01:06:34;4.80;;;1.00;;
47309;SDS011;33046;52.270;6.832;2023-07-13T01:08:41;11.18;;;1.45;;
47309;SDS011;33046;52.270;6.832;2023-07-13T01:10:52;4.13;;;1.10;;
47309;SDS011;33046;52.270;6.832;2023-07-13T01:12:59;8.32;;;1.30;;
47309;SDS011;33046;52.270;6.832;2023-07-13T01:17:41;4.55;;;1.25;;
47309;SDS011;33046;52.270;6.832;2023-07-13T01:19:50;8.05;;;1.40;;
47309;SDS011;33046;52.270;6.832;2023-07-13T01:21:58;5.57;;;1.83;;
47309;SDS011;33046;52.270;6.832;2023-07-13T01:24:05;5.90;;;1.40;;
47309;SDS011;33046;52.270;6.832;2023-07-13T01:26:12;11.95;;;1.30;;
47309;SDS011;33046;52.270;6.832;2023-07-13T01:28:19;7.88;;;1.63;;
47309;SDS011;33046;52.270;6.832;2023-07-13T01:30:27;5.32;;;1.80;;
47309;SDS011;33046;52.270;6.832;2023-07-13T01:32:34;6.25;;;1.92;;
47309;SDS011;33046;52.270;6.832;2023-07-13T01:34:41;6.20;;;1.20;;
47309;SDS011;33046;52.270;6.832;2023-07-13T01:36:48;3.53;;;1.60;;
47309;SDS011;33046;52.270;6.832;2023-07-13T01:38:56;5.07;;;1.27;;
47309;SDS011;33046;52.270;6.832;2023-07-13T01:41:03;8.45;;;2.08;;
47309;SDS011;33046;52.270;6.832;2023-07-13T01:43:10;9.57;;;1.75;;
47309;SDS011;33046;52.270;6.832;2023-07-13T01:45:17;2.80;;;1.08;;
47309;SDS011;33046;52.270;6.832;2023-07-13T01:47:25;7.97;;;1.55;;
47309;SDS011;33046;52.270;6.832;2023-07-13T01:49:32;3.78;;;1.08;;
47309;SDS011;33046;52.270;6.832;2023-07-13T01:51:39;7.43;;;1.52;;
47309;SDS011;33046;52.270;6.832;2023-07-13T01:53:46;5.57;;;1.38;;
47309;SDS011;33046;52.270;6.832;2023-07-13T01:55:54;4.63;;;1.10;;
47309;SDS011;33046;52.270;6.832;2023-07-13T01:58:01;8.05;;;1.15;;
47309;SDS011;33046;52.270;6.832;2023-07-13T02:00:09;3.47;;;1.20;;
47309;SDS011;33046;52.270;6.832;2023-07-13T02:02:25;7.00;;;1.23;;
47309;SDS011;33046;52.270;6.832;2023-07-13T02:04:32;5.53;;;1.10;;
47309;SDS011;33046;52.270;6.832;2023-07-13T02:06:39;5.75;;;1.42;;
47309;SDS011;33046;52.270;6.832;2023-07-13T02:08:46;5.35;;;1.73;;
47309;SDS011;33046;52.270;6.832;2023-07-13T02:10:55;9.63;;;2.00;;
47309;SDS011;33046;52.270;6.832;2023-07-13T02:13:03;9.00;;;1.27;;
47309;SDS011;33046;52.270;6.832;2023-07-13T02:15:11;6.93;;;1.20;;
47309;SDS011;33046;52.270;6.832;2023-07-13T02:17:18;10.43;;;1.85;;
47309;SDS011;33046;52.270;6.832;2023-07-13T02:19:25;5.07;;;1.45;;
47309;SDS011;33046;52.270;6.832;2023-07-13T02:21:32;5.13;;;1.25;;
47309;SDS011;33046;52.270;6.832;2023-07-13T02:23:39;6.32;;;1.23;;
47309;SDS011;33046;52.270;6.832;2023-07-13T02:25:47;4.22;;;0.98;;
47309;SDS011;33046;52.270;6.832;2023-07-13T02:27:56;6.47;;;1.33;;
47309;SDS011;33046;52.270;6.832;2023-07-13T02:30:03;7.20;;;0.98;;
47309;SDS011;33046;52.270;6.832;2023-07-13T02:32:11;7.95;;;1.45;;
47309;SDS011;33046;52.270;6.832;2023-07-13T02:34:18;6.85;;;1.85;;
47309;SDS011;33046;52.270;6.832;2023-07-13T02:36:25;4.13;;;0.98;;
47309;SDS011;33046;52.270;6.832;2023-07-13T02:38:32;3.33;;;1.00;;
47309;SDS011;33046;52.270;6.832;2023-07-13T02:40:41;6.30;;;1.10;;
47309;SDS011;33046;52.270;6.832;2023-07-13T02:42:48;4.72;;;1.05;;
47309;SDS011;33046;52.270;6.832;2023-07-13T02:44:56;3.90;;;1.02;;
47309;SDS011;33046;52.270;6.832;2023-07-13T02:47:03;4.45;;;1.52;;
47309;SDS011;33046;52.270;6.832;2023-07-13T02:49:10;2.33;;;0.88;;
47309;SDS011;33046;52.270;6.832;2023-07-13T02:51:17;3.85;;;1.00;;
47309;SDS011;33046;52.270;6.832;2023-07-13T02:53:24;6.22;;;1.33;;
47309;SDS011;33046;52.270;6.832;2023-07-13T02:55:31;6.30;;;0.90;;
47309;SDS011;33046;52.270;6.832;2023-07-13T02:57:38;3.38;;;1.05;;
47309;SDS011;33046;52.270;6.832;2023-07-13T02:59:45;4.72;;;0.90;;
47309;SDS011;33046;52.270;6.832;2023-07-13T03:01:54;6.15;;;0.95;;
47309;SDS011;33046;52.270;6.832;2023-07-13T03:04:01;3.20;;;0.88;;
47309;SDS011;33046;52.270;6.832;2023-07-13T03:06:10;5.03;;;1.20;;
47309;SDS011;33046;52.270;6.832;2023-07-13T03:08:25;5.75;;;1.15;;
47309;SDS011;33046;52.270;6.832;2023-07-13T03:10:33;3.83;;;0.80;;
47309;SDS011;33046;52.270;6.832;2023-07-13T03:12:40;6.03;;;1.20;;
47309;SDS011;33046;52.270;6.832;2023-07-13T03:14:55;7.53;;;0.98;;
47309;SDS011;33046;52.270;6.832;2023-07-13T03:17:04;6.43;;;1.10;;
47309;SDS011;33046;52.270;6.832;2023-07-13T03:19:14;3.97;;;1.00;;
47309;SDS011;33046;52.270;6.832;2023-07-13T03:21:26;6.38;;;1.00;;
47309;SDS011;33046;52.270;6.832;2023-07-13T03:23:33;3.90;;;1.10;;
47309;SDS011;33046;52.270;6.832;2023-07-13T03:25:41;4.78;;;1.17;;
47309;SDS011;33046;52.270;6.832;2023-07-13T03:27:48;4.05;;;1.00;;
47309;SDS011;33046;52.270;6.832;2023-07-13T03:29:55;5.35;;;1.55;;
47309;SDS011;33046;52.270;6.832;2023-07-13T03:32:05;4.68;;;1.50;;
47309;SDS011;33046;52.270;6.832;2023-07-13T03:34:12;4.93;;;1.20;;
47309;SDS011;33046;52.270;6.832;2023-07-13T03:36:21;6.85;;;1.30;;
47309;SDS011;33046;52.270;6.832;2023-07-13T03:38:33;5.47;;;1.10;;
47309;SDS011;33046;52.270;6.832;2023-07-13T03:40:42;6.68;;;2.15;;
47309;SDS011;33046;52.270;6.832;2023-07-13T03:42:50;6.72;;;1.30;;
47309;SDS011;33046;52.270;6.832;2023-07-13T03:44:57;4.38;;;1.40;;
47309;SDS011;33046;52.270;6.832;2023-07-13T03:47:06;6.25;;;1.95;;
47309;SDS011;33046;52.270;6.832;2023-07-13T03:49:13;7.95;;;1.30;;
47309;SDS011;33046;52.270;6.832;2023-07-13T03:51:20;3.42;;;1.60;;
47309;SDS011;33046;52.270;6.832;2023-07-13T03:53:28;3.83;;;1.30;;
47309;SDS011;33046;52.270;6.832;2023-07-13T03:55:35;3.78;;;1.00;;
47309;SDS011;33046;52.270;6.832;2023-07-13T03:57:42;5.50;;;1.48;;
47309;SDS011;33046;52.270;6.832;2023-07-13T03:59:49;3.75;;;1.38;;
47309;SDS011;33046;52.270;6.832;2023-07-13T04:01:56;5.20;;;1.92;;
47309;SDS011;33046;52.270;6.832;2023-07-13T04:04:05;4.22;;;1.30;;
47309;SDS011;33046;52.270;6.832;2023-07-13T04:06:14;9.18;;;1.50;;
47309;SDS011;33046;52.270;6.832;2023-07-13T04:08:23;5.28;;;2.08;;
47309;SDS011;33046;52.270;6.832;2023-07-13T04:10:30;6.30;;;1.80;;
47309;SDS011;33046;52.270;6.832;2023-07-13T04:12:37;5.03;;;1.73;;
47309;SDS011;33046;52.270;6.832;2023-07-13T04:14:44;5.72;;;1.75;;
47309;SDS011;33046;52.270;6.832;2023-07-13T04:16:51;6.93;;;1.48;;
47309;SDS011;33046;52.270;6.832;2023-07-13T04:18:58;5.90;;;2.03;;
47309;SDS011;33046;52.270;6.832;2023-07-13T04:21:06;5.25;;;1.52;;
47309;SDS011;33046;52.270;6.832;2023-07-13T04:23:14;4.45;;;1.33;;
47309;SDS011;33046;52.270;6.832;2023-07-13T04:25:21;5.57;;;1.20;;
47309;SDS011;33046;52.270;6.832;2023-07-13T04:27:28;4.15;;;1.70;;
47309;SDS011;33046;52.270;6.832;2023-07-13T04:29:35;8.52;;;1.65;;
47309;SDS011;33046;52.270;6.832;2023-07-13T04:31:42;6.05;;;1.95;;
47309;SDS011;33046;52.270;6.832;2023-07-13T04:33:49;6.65;;;1.92;;
47309;SDS011;33046;52.270;6.832;2023-07-13T04:35:56;5.95;;;2.25;;
47309;SDS011;33046;52.270;6.832;2023-07-13T04:38:05;6.00;;;2.03;;
47309;SDS011;33046;52.270;6.832;2023-07-13T04:40:12;5.85;;;1.55;;
47309;SDS011;33046;52.270;6.832;2023-07-13T04:42:19;6.30;;;1.98;;
47309;SDS011;33046;52.270;6.832;2023-07-13T04:44:26;6.07;;;2.08;;
47309;SDS011;33046;52.270;6.832;2023-07-13T04:46:33;8.88;;;2.53;;
47309;SDS011;33046;52.270;6.832;2023-07-13T04:48:40;7.22;;;2.17;;
47309;SDS011;33046;52.270;6.832;2023-07-13T04:50:47;7.63;;;1.80;;
47309;SDS011;33046;52.270;6.832;2023-07-13T04:53:00;8.38;;;2.03;;
47309;SDS011;33046;52.270;6.832;2023-07-13T04:55:08;6.28;;;2.30;;
47309;SDS011;33046;52.270;6.832;2023-07-13T04:57:15;6.22;;;1.70;;
47309;SDS011;33046;52.270;6.832;2023-07-13T04:59:22;8.93;;;2.28;;
47309;SDS011;33046;52.270;6.832;2023-07-13T05:01:29;8.82;;;2.28;;
47309;SDS011;33046;52.270;6.832;2023-07-13T05:03:36;10.15;;;2.80;;
47309;SDS011;33046;52.270;6.832;2023-07-13T05:05:54;9.45;;;3.13;;
47309;SDS011;33046;52.270;6.832;2023-07-13T05:08:02;6.28;;;2.20;;
47309;SDS011;33046;52.270;6.832;2023-07-13T05:10:10;3.92;;;1.92;;
47309;SDS011;33046;52.270;6.832;2023-07-13T05:12:17;6.72;;;2.40;;
47309;SDS011;33046;52.270;6.832;2023-07-13T05:14:24;10.63;;;2.78;;
47309;SDS011;33046;52.270;6.832;2023-07-13T05:16:31;8.32;;;2.97;;
47309;SDS011;33046;52.270;6.832;2023-07-13T05:18:38;6.15;;;2.35;;
47309;SDS011;33046;52.270;6.832;2023-07-13T05:20:54;7.25;;;2.28;;
47309;SDS011;33046;52.270;6.832;2023-07-13T05:23:03;9.43;;;3.33;;
47309;SDS011;33046;52.270;6.832;2023-07-13T05:25:11;9.18;;;2.33;;
47309;SDS011;33046;52.270;6.832;2023-07-13T05:27:18;6.18;;;2.25;;
47309;SDS011;33046;52.270;6.832;2023-07-13T05:29:25;6.72;;;1.80;;
47309;SDS011;33046;52.270;6.832;2023-07-13T05:31:32;7.75;;;2.75;;
47309;SDS011;33046;52.270;6.832;2023-07-13T05:33:39;9.05;;;2.22;;
47309;SDS011;33046;52.270;6.832;2023-07-13T05:35:46;6.72;;;2.42;;
47309;SDS011;33046;52.270;6.832;2023-07-13T05:37:53;9.30;;;2.85;;
47309;SDS011;33046;52.270;6.832;2023-07-13T05:40:01;8.70;;;1.98;;
47309;SDS011;33046;52.270;6.832;2023-07-13T05:42:09;9.82;;;2.65;;
47309;SDS011;33046;52.270;6.832;2023-07-13T05:44:16;7.38;;;2.47;;
47309;SDS011;33046;52.270;6.832;2023-07-13T05:46:23;7.05;;;2.15;;
47309;SDS011;33046;52.270;6.832;2023-07-13T05:48:30;8.02;;;2.30;;
47309;SDS011;33046;52.270;6.832;2023-07-13T05:50:37;12.52;;;2.42;;
47309;SDS011;33046;52.270;6.832;2023-07-13T05:52:44;7.30;;;2.00;;
47309;SDS011;33046;52.270;6.832;2023-07-13T05:54:51;9.55;;;2.28;;
47309;SDS011;33046;52.270;6.832;2023-07-13T05:56:58;10.23;;;2.45;;
47309;SDS011;33046;52.270;6.832;2023-07-13T05:59:07;7.90;;;1.95;;
47309;SDS011;33046;52.270;6.832;2023-07-13T06:01:14;5.90;;;2.63;;
47309;SDS011;33046;52.270;6.832;2023-07-13T06:03:22;5.97;;;1.98;;
47309;SDS011;33046;52.270;6.832;2023-07-13T06:05:29;7.43;;;2.22;;
47309;SDS011;33046;52.270;6.832;2023-07-13T06:07:36;10.93;;;3.58;;
47309;SDS011;33046;52.270;6.832;2023-07-13T06:09:43;8.57;;;2.55;;
47309;SDS011;33046;52.270;6.832;2023-07-13T06:11:50;8.77;;;2.20;;
47309;SDS011;33046;52.270;6.832;2023-07-13T06:13:57;10.40;;;2.85;;
47309;SDS011;33046;52.270;6.832;2023-07-13T06:16:06;10.55;;;2.90;;
47309;SDS011;33046;52.270;6.832;2023-07-13T06:18:13;9.45;;;3.42;;
47309;SDS011;33046;52.270;6.832;2023-07-13T06:20:20;7.75;;;2.80;;
47309;SDS011;33046;52.270;6.832;2023-07-13T06:22:27;7.18;;;2.72;;
47309;SDS011;33046;52.270;6.832;2023-07-13T06:24:34;8.05;;;3.45;;
47309;SDS011;33046;52.270;6.832;2023-07-13T06:26:42;10.10;;;2.78;;
47309;SDS011;33046;52.270;6.832;2023-07-13T06:28:49;9.07;;;2.95;;
47309;SDS011;33046;52.270;6.832;2023-07-13T06:30:55;6.82;;;2.67;;
47309;SDS011;33046;52.270;6.832;2023-07-13T06:33:04;10.68;;;2.60;;
47309;SDS011;33046;52.270;6.832;2023-07-13T06:35:11;10.70;;;2.97;;
47309;SDS011;33046;52.270;6.832;2023-07-13T06:37:18;11.75;;;3.00;;
47309;SDS011;33046;52.270;6.832;2023-07-13T06:39:25;12.00;;;3.88;;
47309;SDS011;33046;52.270;6.832;2023-07-13T06:41:32;7.40;;;2.70;;
47309;SDS011;33046;52.270;6.832;2023-07-13T06:43:39;8.55;;;3.65;;
47309;SDS011;33046;52.270;6.832;2023-07-13T06:45:46;11.50;;;3.47;;
47309;SDS011;33046;52.270;6.832;2023-07-13T06:47:54;13.45;;;3.58;;
47309;SDS011;33046;52.270;6.832;2023-07-13T06:50:03;8.40;;;3.15;;
47309;SDS011;33046;52.270;6.832;2023-07-13T06:52:10;8.10;;;2.78;;
47309;SDS011;33046;52.270;6.832;2023-07-13T06:54:17;8.73;;;3.83;;
47309;SDS011;33046;52.270;6.832;2023-07-13T06:56:24;9.35;;;3.40;;
47309;SDS011;33046;52.270;6.832;2023-07-13T06:58:34;7.00;;;3.13;;
47309;SDS011;33046;52.270;6.832;2023-07-13T07:00:41;7.90;;;3.58;;
47309;SDS011;33046;52.270;6.832;2023-07-13T07:02:48;11.93;;;4.00;;
47309;SDS011;33046;52.270;6.832;2023-07-13T07:04:55;9.50;;;3.47;;
47309;SDS011;33046;52.270;6.832;2023-07-13T07:07:04;17.15;;;4.65;;
47309;SDS011;33046;52.270;6.832;2023-07-13T07:09:10;10.07;;;3.97;;
47309;SDS011;33046;52.270;6.832;2023-07-13T07:11:19;14.13;;;4.68;;
47309;SDS011;33046;52.270;6.832;2023-07-13T07:13:27;9.63;;;4.30;;
47309;SDS011;33046;52.270;6.832;2023-07-13T07:15:34;8.27;;;4.03;;
47309;SDS011;33046;52.270;6.832;2023-07-13T07:17:41;9.65;;;4.60;;
47309;SDS011;33046;52.270;6.832;2023-07-13T07:19:48;10.02;;;3.83;;
47309;SDS011;33046;52.270;6.832;2023-07-13T07:21:55;8.25;;;4.70;;
47309;SDS011;33046;52.270;6.832;2023-07-13T07:24:04;9.63;;;4.25;;
47309;SDS011;33046;52.270;6.832;2023-07-13T07:26:11;13.70;;;5.22;;
47309;SDS011;33046;52.270;6.832;2023-07-13T07:28:18;10.07;;;4.47;;
47309;SDS011;33046;52.270;6.832;2023-07-13T07:30:28;9.18;;;4.15;;
47309;SDS011;33046;52.270;6.832;2023-07-13T07:32:38;11.73;;;4.95;;
47309;SDS011;33046;52.270;6.832;2023-07-13T07:34:48;12.60;;;4.63;;
47309;SDS011;33046;52.270;6.832;2023-07-13T07:36:56;8.65;;;4.63;;
47309;SDS011;33046;52.270;6.832;2023-07-13T07:41:16;11.73;;;4.28;;
47309;SDS011;33046;52.270;6.832;2023-07-13T07:43:26;7.63;;;4.38;;
47309;SDS011;33046;52.270;6.832;2023-07-13T07:45:33;13.40;;;5.20;;
47309;SDS011;33046;52.270;6.832;2023-07-13T07:47:40;8.80;;;4.18;;
47309;SDS011;33046;52.270;6.832;2023-07-13T07:49:47;12.88;;;5.32;;
47309;SDS011;33046;52.270;6.832;2023-07-13T07:51:55;9.45;;;4.45;;
47309;SDS011;33046;52.270;6.832;2023-07-13T07:54:02;9.05;;;4.53;;
47309;SDS011;33046;52.270;6.832;2023-07-13T07:56:11;12.38;;;5.15;;
47309;SDS011;33046;52.270;6.832;2023-07-13T07:58:21;8.32;;;4.65;;
47309;SDS011;33046;52.270;6.832;2023-07-13T08:00:31;12.00;;;5.38;;
47309;SDS011;33046;52.270;6.832;2023-07-13T08:02:58;10.32;;;5.03;;
47309;SDS011;33046;52.270;6.832;2023-07-13T08:05:26;9.20;;;5.45;;
47309;SDS011;33046;52.270;6.832;2023-07-13T08:07:44;10.93;;;4.78;;
47309;SDS011;33046;52.270;6.832;2023-07-13T08:09:51;11.77;;;6.40;;
47309;SDS011;33046;52.270;6.832;2023-07-13T08:12:00;11.10;;;6.13;;
47309;SDS011;33046;52.270;6.832;2023-07-13T08:14:10;10.48;;;5.30;;
47309;SDS011;33046;52.270;6.832;2023-07-13T08:16:17;11.38;;;5.32;;
47309;SDS011;33046;52.270;6.832;2023-07-13T08:18:24;12.68;;;5.63;;
47309;SDS011;33046;52.270;6.832;2023-07-13T08:20:31;9.70;;;5.70;;
47309;SDS011;33046;52.270;6.832;2023-07-13T08:22:38;15.88;;;5.47;;
47309;SDS011;33046;52.270;6.832;2023-07-13T08:24:45;9.30;;;4.93;;
47309;SDS011;33046;52.270;6.832;2023-07-13T08:26:52;11.07;;;4.35;;
47309;SDS011;33046;52.270;6.832;2023-07-13T08:29:01;12.80;;;5.38;;
47309;SDS011;33046;52.270;6.832;2023-07-13T08:31:08;8.38;;;5.07;;
47309;SDS011;33046;52.270;6.832;2023-07-13T08:33:15;7.72;;;4.47;;
47309;SDS011;33046;52.270;6.832;2023-07-13T08:35:22;11.32;;;5.93;;
47309;SDS011;33046;52.270;6.832;2023-07-13T08:37:29;9.90;;;5.25;;
47309;SDS011;33046;52.270;6.832;2023-07-13T08:39:36;8.55;;;4.60;;
47309;SDS011;33046;52.270;6.832;2023-07-13T08:41:44;9.50;;;5.20;;
47309;SDS011;33046;52.270;6.832;2023-07-13T08:43:56;9.73;;;5.55;;
47309;SDS011;33046;52.270;6.832;2023-07-13T08:46:07;10.75;;;5.05;;
47309;SDS011;33046;52.270;6.832;2023-07-13T08:48:18;11.63;;;5.85;;
47309;SDS011;33046;52.270;6.832;2023-07-13T08:50:36;13.05;;;4.85;;
47309;SDS011;33046;52.270;6.832;2023-07-13T08:53:03;9.98;;;5.07;;
47309;SDS011;33046;52.270;6.832;2023-07-13T08:55:13;9.95;;;5.13;;
47309;SDS011;33046;52.270;6.832;2023-07-13T08:57:24;8.30;;;3.85;;
47309;SDS011;33046;52.270;6.832;2023-07-13T08:59:34;7.38;;;4.32;;
47309;SDS011;33046;52.270;6.832;2023-07-13T09:01:50;13.10;;;4.63;;
47309;SDS011;33046;52.270;6.832;2023-07-13T09:04:23;7.35;;;5.03;;
47309;SDS011;33046;52.270;6.832;2023-07-13T09:06:36;7.15;;;3.70;;
47309;SDS011;33046;52.270;6.832;2023-07-13T09:08:53;7.78;;;4.13;;
47309;SDS011;33046;52.270;6.832;2023-07-13T09:11:08;8.18;;;4.13;;
47309;SDS011;33046;52.270;6.832;2023-07-13T09:13:28;8.35;;;5.03;;
47309;SDS011;33046;52.270;6.832;2023-07-13T09:15:44;7.53;;;4.28;;
47309;SDS011;33046;52.270;6.832;2023-07-13T09:17:54;10.02;;;5.15;;
47309;SDS011;33046;52.270;6.832;2023-07-13T09:20:08;10.45;;;5.05;;
47309;SDS011;33046;52.270;6.832;2023-07-13T09:22:24;9.45;;;4.93;;
47309;SDS011;33046;52.270;6.832;2023-07-13T09:24:35;13.82;;;5.78;;
47309;SDS011;33046;52.270;6.832;2023-07-13T09:26:44;10.90;;;5.65;;
47309;SDS011;33046;52.270;6.832;2023-07-13T09:28:51;9.82;;;4.70;;
47309;SDS011;33046;52.270;6.832;2023-07-13T09:31:03;10.07;;;5.18;;
47309;SDS011;33046;52.270;6.832;2023-07-13T09:33:13;10.48;;;4.90;;
47309;SDS011;33046;52.270;6.832;2023-07-13T09:35:22;7.95;;;4.35;;
47309;SDS011;33046;52.270;6.832;2023-07-13T09:37:32;11.35;;;5.03;;
47309;SDS011;33046;52.270;6.832;2023-07-13T09:39:39;9.18;;;5.75;;
47309;SDS011;33046;52.270;6.832;2023-07-13T09:41:49;10.90;;;5.70;;
47309;SDS011;33046;52.270;6.832;2023-07-13T09:44:11;13.60;;;6.25;;
47309;SDS011;33046;52.270;6.832;2023-07-13T09:46:20;14.27;;;5.50;;
47309;SDS011;33046;52.270;6.832;2023-07-13T09:48:33;10.80;;;6.03;;
47309;SDS011;33046;52.270;6.832;2023-07-13T09:50:41;10.23;;;5.57;;
47309;SDS011;33046;52.270;6.832;2023-07-13T09:52:49;7.15;;;5.00;;
47309;SDS011;33046;52.270;6.832;2023-07-13T09:54:56;8.70;;;4.72;;
47309;SDS011;33046;52.270;6.832;2023-07-13T09:57:08;8.02;;;4.70;;
47309;SDS011;33046;52.270;6.832;2023-07-13T09:59:19;10.10;;;6.25;;
47309;SDS011;33046;52.270;6.832;2023-07-13T10:01:31;9.77;;;4.75;;
47309;SDS011;33046;52.270;6.832;2023-07-13T10:03:51;9.30;;;5.83;;
47309;SDS011;33046;52.270;6.832;2023-07-13T10:06:01;11.20;;;5.57;;
47309;SDS011;33046;52.270;6.832;2023-07-13T10:08:18;9.27;;;5.93;;
47309;SDS011;33046;52.270;6.832;2023-07-13T10:10:27;11.63;;;6.13;;
47309;SDS011;33046;52.270;6.832;2023-07-13T10:12:35;13.23;;;5.60;;
47309;SDS011;33046;52.270;6.832;2023-07-13T10:14:44;15.30;;;7.70;;
47309;SDS011;33046;52.270;6.832;2023-07-13T10:16:52;12.73;;;5.45;;
47309;SDS011;33046;52.270;6.832;2023-07-13T10:19:09;8.95;;;5.07;;
47309;SDS011;33046;52.270;6.832;2023-07-13T10:21:19;12.13;;;6.20;;
47309;SDS011;33046;52.270;6.832;2023-07-13T10:23:35;12.88;;;6.20;;
47309;SDS011;33046;52.270;6.832;2023-07-13T10:25:42;6.40;;;4.30;;
47309;SDS011;33046;52.270;6.832;2023-07-13T10:27:53;11.30;;;5.07;;
47309;SDS011;33046;52.270;6.832;2023-07-13T10:30:04;12.43;;;5.63;;
47309;SDS011;33046;52.270;6.832;2023-07-13T10:32:21;8.90;;;4.82;;
47309;SDS011;33046;52.270;6.832;2023-07-13T10:34:32;12.05;;;4.57;;
47309;SDS011;33046;52.270;6.832;2023-07-13T10:36:40;10.40;;;4.72;;
47309;SDS011;33046;52.270;6.832;2023-07-13T10:38:48;10.55;;;3.42;;
47309;SDS011;33046;52.270;6.832;2023-07-13T10:41:01;6.70;;;4.28;;
47309;SDS011;33046;52.270;6.832;2023-07-13T10:43:12;5.60;;;3.53;;
47309;SDS011;33046;52.270;6.832;2023-07-13T10:45:24;8.90;;;3.95;;
47309;SDS011;33046;52.270;6.832;2023-07-13T10:47:33;12.38;;;5.15;;
47309;SDS011;33046;52.270;6.832;2023-07-13T10:49:41;5.60;;;3.58;;
47309;SDS011;33046;52.270;6.832;2023-07-13T10:51:49;13.98;;;3.78;;
47309;SDS011;33046;52.270;6.832;2023-07-13T10:54:10;5.85;;;3.65;;
47309;SDS011;33046;52.270;6.832;2023-07-13T10:56:24;8.18;;;4.22;;
47309;SDS011;33046;52.270;6.832;2023-07-13T10:58:35;10.45;;;4.13;;
47309;SDS011;33046;52.270;6.832;2023-07-13T11:00:46;6.25;;;4.15;;
47309;SDS011;33046;52.270;6.832;2023-07-13T11:02:56;7.82;;;3.50;;
47309;SDS011;33046;52.270;6.832;2023-07-13T11:05:16;8.75;;;4.03;;
47309;SDS011;33046;52.270;6.832;2023-07-13T11:07:32;7.55;;;3.75;;
47309;SDS011;33046;52.270;6.832;2023-07-13T11:09:59;9.30;;;4.75;;
47309;SDS011;33046;52.270;6.832;2023-07-13T11:12:26;9.32;;;4.95;;
47309;SDS011;33046;52.270;6.832;2023-07-13T11:14:35;9.57;;;5.90;;
47309;SDS011;33046;52.270;6.832;2023-07-13T11:16:44;11.27;;;6.35;;
47309;SDS011;33046;52.270;6.832;2023-07-13T11:18:53;9.10;;;5.43;;
47309;SDS011;33046;52.270;6.832;2023-07-13T11:21:31;8.32;;;5.55;;
47309;SDS011;33046;52.270;6.832;2023-07-13T11:23:40;8.30;;;5.25;;
47309;SDS011;33046;52.270;6.832;2023-07-13T11:25:49;9.18;;;7.03;;
47309;SDS011;33046;52.270;6.832;2023-07-13T11:30:24;9.95;;;6.18;;
47309;SDS011;33046;52.270;6.832;2023-07-13T11:32:38;7.93;;;4.78;;
47309;SDS011;33046;52.270;6.832;2023-07-13T11:34:45;8.45;;;6.07;;
47309;SDS011;33046;52.270;6.832;2023-07-13T11:36:53;7.03;;;4.25;;
47309;SDS011;33046;52.270;6.832;2023-07-13T11:39:03;6.45;;;4.20;;
47309;SDS011;33046;52.270;6.832;2023-07-13T11:41:18;5.35;;;3.33;;
47309;SDS011;33046;52.270;6.832;2023-07-13T11:43:28;6.45;;;2.40;;
47309;SDS011;33046;52.270;6.832;2023-07-13T11:45:36;4.28;;;2.03;;
47309;SDS011;33046;52.270;6.832;2023-07-13T11:47:48;4.88;;;2.00;;
47309;SDS011;33046;52.270;6.832;2023-07-13T11:49:55;3.20;;;1.60;;
47309;SDS011;33046;52.270;6.832;2023-07-13T11:52:04;3.22;;;1.55;;
47309;SDS011;33046;52.270;6.832;2023-07-13T11:54:20;5.60;;;2.03;;
47309;SDS011;33046;52.270;6.832;2023-07-13T11:56:30;5.00;;;1.60;;
47309;SDS011;33046;52.270;6.832;2023-07-13T11:58:37;2.90;;;1.17;;
47309;SDS011;33046;52.270;6.832;2023-07-13T12:00:45;4.28;;;1.00;;
47309;SDS011;33046;52.270;6.832;2023-07-13T12:02:53;2.15;;;0.60;;
47309;SDS011;33046;52.270;6.832;2023-07-13T12:05:03;5.40;;;1.15;;
47309;SDS011;33046;52.270;6.832;2023-07-13T12:07:16;3.38;;;0.70;;
47309;SDS011;33046;52.270;6.832;2023-07-13T12:09:25;1.40;;;0.60;;
47309;SDS011;33046;52.270;6.832;2023-07-13T12:11:40;1.45;;;0.50;;
47309;SDS011;33046;52.270;6.832;2023-07-13T12:13:47;1.52;;;0.60;;
47309;SDS011;33046;52.270;6.832;2023-07-13T12:15:55;1.30;;;0.40;;
47309;SDS011;33046;52.270;6.832;2023-07-13T12:18:09;1.00;;;0.32;;
47309;SDS011;33046;52.270;6.832;2023-07-13T12:20:20;0.98;;;0.45;;
47309;SDS011;33046;52.270;6.832;2023-07-13T12:22:31;2.03;;;0.40;;
47309;SDS011;33046;52.270;6.832;2023-07-13T12:24:39;1.00;;;0.30;;
47309;SDS011;33046;52.270;6.832;2023-07-13T12:26:50;1.23;;;0.50;;
47309;SDS011;33046;52.270;6.832;2023-07-13T12:28:59;1.88;;;0.68;;
47309;SDS011;33046;52.270;6.832;2023-07-13T12:31:08;2.85;;;0.50;;
47309;SDS011;33046;52.270;6.832;2023-07-13T12:33:31;2.08;;;0.50;;
47309;SDS011;33046;52.270;6.832;2023-07-13T12:35:39;2.15;;;0.68;;
47309;SDS011;33046;52.270;6.832;2023-07-13T12:37:50;0.90;;;0.50;;
47309;SDS011;33046;52.270;6.832;2023-07-13T12:39:58;2.28;;;0.90;;
47309;SDS011;33046;52.270;6.832;2023-07-13T12:42:18;4.20;;;1.00;;
47309;SDS011;33046;52.270;6.832;2023-07-13T12:44:27;2.10;;;0.77;;
47309;SDS011;33046;52.270;6.832;2023-07-13T12:46:36;2.15;;;0.90;;
47309;SDS011;33046;52.270;6.832;2023-07-13T12:48:43;2.10;;;1.08;;
47309;SDS011;33046;52.270;6.832;2023-07-13T12:50:53;4.45;;;1.50;;
47309;SDS011;33046;52.270;6.832;2023-07-13T12:53:03;4.32;;;1.45;;
47309;SDS011;33046;52.270;6.832;2023-07-13T12:55:12;4.22;;;1.65;;
47309;SDS011;33046;52.270;6.832;2023-07-13T12:57:20;3.03;;;1.10;;
47309;SDS011;33046;52.270;6.832;2023-07-13T12:59:29;5.75;;;1.98;;
47309;SDS011;33046;52.270;6.832;2023-07-13T13:01:37;2.67;;;1.27;;
47309;SDS011;33046;52.270;6.832;2023-07-13T13:03:45;4.22;;;1.63;;